sensor_id;sensor_type;location;lat;lon;timestamp;P1;durP1;ratioP1;P2;durP2;ratioP2
45206;SDS011;30950;53.086;21.576;2023-03-23T00:01:13;35.67;;;21.25;;
45206;SDS011;30950;53.086;21.576;2023-03-23T00:03:45;37.13;;;23.83;;
45206;SDS011;30950;53.086;21.576;2023-03-23T00:06:12;30.52;;;21.92;;
45206;SDS011;30950;53.086;21.576;2023-03-23T00:08:46;36.40;;;22.95;;
45206;SDS011;30950;53.086;21.576;2023-03-23T00:11:17;31.25;;;20.85;;
45206;SDS011;30950;53.086;21.576;2023-03-23T00:13:45;35.83;;;22.75;;
45206;SDS011;30950;53.086;21.576;2023-03-23T00:16:13;30.23;;;21.48;;
45206;SDS011;30950;53.086;21.576;2023-03-23T00:18:45;33.88;;;22.35;;
45206;SDS011;30950;53.086;21.576;2023-03-23T00:21:12;32.20;;;20.73;;
45206;SDS011;30950;53.086;21.576;2023-03-23T00:23:39;33.00;;;20.52;;
45206;SDS011;30950;53.086;21.576;2023-03-23T00:26:05;29.27;;;20.92;;
45206;SDS011;30950;53.086;21.576;2023-03-23T00:28:32;38.08;;;22.55;;
45206;SDS011;30950;53.086;21.576;2023-03-23T00:30:58;30.55;;;21.40;;
45206;SDS011;30950;53.086;21.576;2023-03-23T00:33:27;33.53;;;22.05;;
45206;SDS011;30950;53.086;21.576;2023-03-23T00:35:55;35.63;;;22.55;;
45206;SDS011;30950;53.086;21.576;2023-03-23T00:38:22;32.83;;;22.17;;
45206;SDS011;30950;53.086;21.576;2023-03-23T00:40:49;32.70;;;22.67;;
45206;SDS011;30950;53.086;21.576;2023-03-23T00:43:17;34.40;;;23.27;;
45206;SDS011;30950;53.086;21.576;2023-03-23T00:45:44;32.90;;;21.85;;
45206;SDS011;30950;53.086;21.576;2023-03-23T00:48:22;33.70;;;22.45;;
45206;SDS011;30950;53.086;21.576;2023-03-23T00:50:51;33.22;;;21.95;;
45206;SDS011;30950;53.086;21.576;2023-03-23T00:53:18;30.40;;;20.90;;
45206;SDS011;30950;53.086;21.576;2023-03-23T00:55:45;30.52;;;21.58;;
45206;SDS011;30950;53.086;21.576;2023-03-23T00:58:12;32.55;;;21.77;;
45206;SDS011;30950;53.086;21.576;2023-03-23T01:00:40;31.70;;;21.27;;
45206;SDS011;30950;53.086;21.576;2023-03-23T01:03:07;35.70;;;21.52;;
45206;SDS011;30950;53.086;21.576;2023-03-23T01:05:38;33.97;;;22.20;;
45206;SDS011;30950;53.086;21.576;2023-03-23T01:08:05;30.95;;;21.73;;
45206;SDS011;30950;53.086;21.576;2023-03-23T01:10:32;33.33;;;21.40;;
45206;SDS011;30950;53.086;21.576;2023-03-23T01:13:00;33.72;;;21.75;;
45206;SDS011;30950;53.086;21.576;2023-03-23T01:15:26;31.08;;;22.10;;
45206;SDS011;30950;53.086;21.576;2023-03-23T01:17:53;28.88;;;21.00;;
45206;SDS011;30950;53.086;21.576;2023-03-23T01:22:46;30.23;;;20.08;;
45206;SDS011;30950;53.086;21.576;2023-03-23T01:25:12;35.55;;;22.35;;
45206;SDS011;30950;53.086;21.576;2023-03-23T01:27:39;34.75;;;21.90;;
45206;SDS011;30950;53.086;21.576;2023-03-23T01:30:06;33.13;;;21.90;;
45206;SDS011;30950;53.086;21.576;2023-03-23T01:32:36;34.17;;;22.48;;
45206;SDS011;30950;53.086;21.576;2023-03-23T01:35:02;28.83;;;21.35;;
45206;SDS011;30950;53.086;21.576;2023-03-23T01:37:29;33.92;;;22.48;;
45206;SDS011;30950;53.086;21.576;2023-03-23T01:39:56;33.88;;;21.25;;
45206;SDS011;30950;53.086;21.576;2023-03-23T01:42:23;35.00;;;22.35;;
45206;SDS011;30950;53.086;21.576;2023-03-23T01:47:18;32.15;;;21.90;;
45206;SDS011;30950;53.086;21.576;2023-03-23T01:49:50;32.10;;;21.13;;
45206;SDS011;30950;53.086;21.576;2023-03-23T01:52:22;32.00;;;21.83;;
45206;SDS011;30950;53.086;21.576;2023-03-23T01:54:54;33.53;;;21.98;;
45206;SDS011;30950;53.086;21.576;2023-03-23T01:57:23;34.58;;;21.85;;
45206;SDS011;30950;53.086;21.576;2023-03-23T01:59:56;33.80;;;22.52;;
45206;SDS011;30950;53.086;21.576;2023-03-23T02:02:40;31.45;;;21.63;;
45206;SDS011;30950;53.086;21.576;2023-03-23T02:05:14;31.83;;;21.40;;
45206;SDS011;30950;53.086;21.576;2023-03-23T02:07:49;30.77;;;21.05;;
45206;SDS011;30950;53.086;21.576;2023-03-23T02:10:16;30.13;;;20.80;;
45206;SDS011;30950;53.086;21.576;2023-03-23T02:12:43;31.52;;;21.90;;
45206;SDS011;30950;53.086;21.576;2023-03-23T02:15:11;33.03;;;21.25;;
45206;SDS011;30950;53.086;21.576;2023-03-23T02:17:44;34.92;;;22.10;;
45206;SDS011;30950;53.086;21.576;2023-03-23T02:25:52;30.00;;;21.42;;
45206;SDS011;30950;53.086;21.576;2023-03-23T02:33:55;32.95;;;21.42;;
45206;SDS011;30950;53.086;21.576;2023-03-23T02:41:40;32.30;;;21.65;;
45206;SDS011;30950;53.086;21.576;2023-03-23T02:44:10;32.17;;;20.55;;
45206;SDS011;30950;53.086;21.576;2023-03-23T02:46:37;30.98;;;21.45;;
45206;SDS011;30950;53.086;21.576;2023-03-23T02:49:07;35.88;;;22.35;;
45206;SDS011;30950;53.086;21.576;2023-03-23T02:51:35;34.15;;;21.65;;
45206;SDS011;30950;53.086;21.576;2023-03-23T02:54:02;29.20;;;20.48;;
45206;SDS011;30950;53.086;21.576;2023-03-23T02:56:31;32.30;;;20.58;;
45206;SDS011;30950;53.086;21.576;2023-03-23T02:59:00;31.88;;;20.17;;
45206;SDS011;30950;53.086;21.576;2023-03-23T03:03:55;30.80;;;21.25;;
45206;SDS011;30950;53.086;21.576;2023-03-23T03:06:27;33.05;;;20.80;;
45206;SDS011;30950;53.086;21.576;2023-03-23T03:09:04;33.70;;;20.77;;
45206;SDS011;30950;53.086;21.576;2023-03-23T03:11:34;34.90;;;21.40;;
45206;SDS011;30950;53.086;21.576;2023-03-23T03:14:08;31.15;;;21.45;;
45206;SDS011;30950;53.086;21.576;2023-03-23T03:16:44;36.05;;;21.73;;
45206;SDS011;30950;53.086;21.576;2023-03-23T03:21:48;30.33;;;21.27;;
45206;SDS011;30950;53.086;21.576;2023-03-23T03:24:22;35.28;;;22.90;;
45206;SDS011;30950;53.086;21.576;2023-03-23T03:26:51;29.80;;;21.13;;
45206;SDS011;30950;53.086;21.576;2023-03-23T03:29:34;36.10;;;20.67;;
45206;SDS011;30950;53.086;21.576;2023-03-23T03:32:04;32.38;;;21.30;;
45206;SDS011;30950;53.086;21.576;2023-03-23T03:34:33;29.00;;;21.55;;
45206;SDS011;30950;53.086;21.576;2023-03-23T03:37:01;31.75;;;21.60;;
45206;SDS011;30950;53.086;21.576;2023-03-23T03:39:35;34.13;;;22.15;;
45206;SDS011;30950;53.086;21.576;2023-03-23T03:42:03;27.95;;;20.05;;
45206;SDS011;30950;53.086;21.576;2023-03-23T03:44:31;30.42;;;21.67;;
45206;SDS011;30950;53.086;21.576;2023-03-23T03:46:58;32.90;;;20.67;;
45206;SDS011;30950;53.086;21.576;2023-03-23T03:49:24;31.23;;;20.27;;
45206;SDS011;30950;53.086;21.576;2023-03-23T03:51:52;33.22;;;21.50;;
45206;SDS011;30950;53.086;21.576;2023-03-23T03:54:24;30.45;;;22.23;;
45206;SDS011;30950;53.086;21.576;2023-03-23T03:56:51;32.50;;;20.02;;
45206;SDS011;30950;53.086;21.576;2023-03-23T03:59:37;30.23;;;21.07;;
45206;SDS011;30950;53.086;21.576;2023-03-23T04:02:22;34.03;;;20.65;;
45206;SDS011;30950;53.086;21.576;2023-03-23T04:04:51;30.35;;;21.05;;
45206;SDS011;30950;53.086;21.576;2023-03-23T04:07:19;30.55;;;21.08;;
45206;SDS011;30950;53.086;21.576;2023-03-23T04:09:47;32.75;;;22.08;;
45206;SDS011;30950;53.086;21.576;2023-03-23T04:12:16;32.88;;;21.27;;
45206;SDS011;30950;53.086;21.576;2023-03-23T04:14:54;32.30;;;21.92;;
45206;SDS011;30950;53.086;21.576;2023-03-23T04:17:22;36.90;;;22.73;;
45206;SDS011;30950;53.086;21.576;2023-03-23T04:19:52;32.25;;;22.25;;
45206;SDS011;30950;53.086;21.576;2023-03-23T04:22:23;35.20;;;23.77;;
45206;SDS011;30950;53.086;21.576;2023-03-23T04:24:58;34.38;;;21.83;;
45206;SDS011;30950;53.086;21.576;2023-03-23T04:27:26;34.97;;;22.77;;
45206;SDS011;30950;53.086;21.576;2023-03-23T04:29:56;35.72;;;22.88;;
45206;SDS011;30950;53.086;21.576;2023-03-23T04:32:42;34.58;;;21.92;;
45206;SDS011;30950;53.086;21.576;2023-03-23T04:35:12;34.55;;;23.00;;
45206;SDS011;30950;53.086;21.576;2023-03-23T04:37:49;35.03;;;23.40;;
45206;SDS011;30950;53.086;21.576;2023-03-23T04:40:19;34.85;;;22.92;;
45206;SDS011;30950;53.086;21.576;2023-03-23T04:42:57;36.00;;;24.40;;
45206;SDS011;30950;53.086;21.576;2023-03-23T04:45:53;37.30;;;23.73;;
45206;SDS011;30950;53.086;21.576;2023-03-23T04:48:29;36.10;;;23.23;;
45206;SDS011;30950;53.086;21.576;2023-03-23T04:51:19;35.60;;;23.83;;
45206;SDS011;30950;53.086;21.576;2023-03-23T04:53:49;35.97;;;25.38;;
45206;SDS011;30950;53.086;21.576;2023-03-23T04:56:16;38.42;;;24.55;;
45206;SDS011;30950;53.086;21.576;2023-03-23T04:58:44;36.50;;;23.10;;
45206;SDS011;30950;53.086;21.576;2023-03-23T05:01:25;35.53;;;24.25;;
45206;SDS011;30950;53.086;21.576;2023-03-23T05:04:16;38.63;;;24.52;;
45206;SDS011;30950;53.086;21.576;2023-03-23T05:06:53;37.42;;;25.25;;
45206;SDS011;30950;53.086;21.576;2023-03-23T05:09:24;36.38;;;24.10;;
45206;SDS011;30950;53.086;21.576;2023-03-23T05:11:51;36.22;;;25.30;;
45206;SDS011;30950;53.086;21.576;2023-03-23T05:14:17;35.70;;;24.33;;
45206;SDS011;30950;53.086;21.576;2023-03-23T05:16:51;37.38;;;24.60;;
45206;SDS011;30950;53.086;21.576;2023-03-23T05:19:18;38.17;;;26.27;;
45206;SDS011;30950;53.086;21.576;2023-03-23T05:21:45;37.65;;;25.45;;
45206;SDS011;30950;53.086;21.576;2023-03-23T05:24:11;40.35;;;26.08;;
45206;SDS011;30950;53.086;21.576;2023-03-23T05:26:39;37.08;;;25.75;;
45206;SDS011;30950;53.086;21.576;2023-03-23T05:29:14;37.63;;;27.15;;
45206;SDS011;30950;53.086;21.576;2023-03-23T05:31:56;36.67;;;25.23;;
45206;SDS011;30950;53.086;21.576;2023-03-23T05:34:26;36.92;;;24.15;;
45206;SDS011;30950;53.086;21.576;2023-03-23T05:36:56;38.95;;;25.90;;
45206;SDS011;30950;53.086;21.576;2023-03-23T05:39:48;35.72;;;25.40;;
45206;SDS011;30950;53.086;21.576;2023-03-23T05:42:38;43.53;;;24.83;;
45206;SDS011;30950;53.086;21.576;2023-03-23T05:45:15;40.00;;;25.60;;
45206;SDS011;30950;53.086;21.576;2023-03-23T05:47:43;42.45;;;26.02;;
45206;SDS011;30950;53.086;21.576;2023-03-23T05:50:16;39.60;;;26.25;;
45206;SDS011;30950;53.086;21.576;2023-03-23T05:52:43;37.60;;;25.67;;
45206;SDS011;30950;53.086;21.576;2023-03-23T05:55:11;32.67;;;23.98;;
45206;SDS011;30950;53.086;21.576;2023-03-23T05:57:40;37.55;;;25.80;;
45206;SDS011;30950;53.086;21.576;2023-03-23T06:00:16;40.50;;;27.90;;
45206;SDS011;30950;53.086;21.576;2023-03-23T06:02:54;40.05;;;27.65;;
45206;SDS011;30950;53.086;21.576;2023-03-23T06:05:29;35.65;;;25.35;;
45206;SDS011;30950;53.086;21.576;2023-03-23T06:07:57;40.28;;;25.52;;
45206;SDS011;30950;53.086;21.576;2023-03-23T06:10:25;34.45;;;24.65;;
45206;SDS011;30950;53.086;21.576;2023-03-23T06:13:00;37.90;;;25.17;;
45206;SDS011;30950;53.086;21.576;2023-03-23T06:15:39;39.53;;;25.85;;
45206;SDS011;30950;53.086;21.576;2023-03-23T06:18:19;43.92;;;28.83;;
45206;SDS011;30950;53.086;21.576;2023-03-23T06:21:09;39.55;;;26.63;;
45206;SDS011;30950;53.086;21.576;2023-03-23T06:24:00;38.08;;;25.17;;
45206;SDS011;30950;53.086;21.576;2023-03-23T06:26:33;39.85;;;26.45;;
45206;SDS011;30950;53.086;21.576;2023-03-23T06:29:05;37.97;;;26.45;;
45206;SDS011;30950;53.086;21.576;2023-03-23T06:31:45;36.28;;;23.80;;
45206;SDS011;30950;53.086;21.576;2023-03-23T06:34:14;35.10;;;24.90;;
45206;SDS011;30950;53.086;21.576;2023-03-23T06:36:59;36.05;;;24.33;;
45206;SDS011;30950;53.086;21.576;2023-03-23T06:39:45;36.63;;;25.23;;
45206;SDS011;30950;53.086;21.576;2023-03-23T06:42:18;35.22;;;24.60;;
45206;SDS011;30950;53.086;21.576;2023-03-23T06:44:50;36.72;;;25.45;;
45206;SDS011;30950;53.086;21.576;2023-03-23T06:47:17;32.67;;;24.10;;
45206;SDS011;30950;53.086;21.576;2023-03-23T06:49:47;38.13;;;26.30;;
45206;SDS011;30950;53.086;21.576;2023-03-23T06:52:25;37.00;;;24.77;;
45206;SDS011;30950;53.086;21.576;2023-03-23T06:54:53;36.80;;;24.70;;
45206;SDS011;30950;53.086;21.576;2023-03-23T06:57:20;32.20;;;23.02;;
45206;SDS011;30950;53.086;21.576;2023-03-23T06:59:48;34.38;;;23.70;;
45206;SDS011;30950;53.086;21.576;2023-03-23T07:02:15;30.15;;;22.17;;
45206;SDS011;30950;53.086;21.576;2023-03-23T07:04:44;30.35;;;23.42;;
45206;SDS011;30950;53.086;21.576;2023-03-23T07:07:22;36.30;;;22.17;;
45206;SDS011;30950;53.086;21.576;2023-03-23T07:10:05;31.67;;;22.63;;
45206;SDS011;30950;53.086;21.576;2023-03-23T07:12:34;29.20;;;20.67;;
45206;SDS011;30950;53.086;21.576;2023-03-23T07:15:02;28.90;;;22.30;;
45206;SDS011;30950;53.086;21.576;2023-03-23T07:17:29;31.98;;;22.65;;
45206;SDS011;30950;53.086;21.576;2023-03-23T07:20:07;33.30;;;21.60;;
45206;SDS011;30950;53.086;21.576;2023-03-23T07:22:33;33.00;;;22.20;;
45206;SDS011;30950;53.086;21.576;2023-03-23T07:25:08;25.52;;;20.33;;
45206;SDS011;30950;53.086;21.576;2023-03-23T07:27:49;29.42;;;20.05;;
45206;SDS011;30950;53.086;21.576;2023-03-23T07:30:16;29.05;;;19.05;;
45206;SDS011;30950;53.086;21.576;2023-03-23T07:32:42;27.60;;;18.88;;
45206;SDS011;30950;53.086;21.576;2023-03-23T07:37:46;29.63;;;20.20;;
45206;SDS011;30950;53.086;21.576;2023-03-23T07:40:15;26.52;;;18.67;;
45206;SDS011;30950;53.086;21.576;2023-03-23T07:42:46;25.65;;;19.50;;
45206;SDS011;30950;53.086;21.576;2023-03-23T07:45:26;29.55;;;20.15;;
45206;SDS011;30950;53.086;21.576;2023-03-23T07:47:54;27.55;;;18.80;;
45206;SDS011;30950;53.086;21.576;2023-03-23T07:50:21;26.45;;;19.80;;
45206;SDS011;30950;53.086;21.576;2023-03-23T07:52:53;26.00;;;18.58;;
45206;SDS011;30950;53.086;21.576;2023-03-23T07:55:22;24.70;;;17.75;;
45206;SDS011;30950;53.086;21.576;2023-03-23T07:58:13;25.75;;;17.30;;
45206;SDS011;30950;53.086;21.576;2023-03-23T08:00:45;23.75;;;17.30;;
45206;SDS011;30950;53.086;21.576;2023-03-23T08:03:14;21.10;;;15.50;;
45206;SDS011;30950;53.086;21.576;2023-03-23T08:06:12;25.42;;;16.92;;
45206;SDS011;30950;53.086;21.576;2023-03-23T08:09:04;23.02;;;16.52;;
45206;SDS011;30950;53.086;21.576;2023-03-23T08:11:58;20.95;;;16.02;;
45206;SDS011;30950;53.086;21.576;2023-03-23T08:14:47;22.15;;;15.20;;
45206;SDS011;30950;53.086;21.576;2023-03-23T08:17:33;19.73;;;13.88;;
45206;SDS011;30950;53.086;21.576;2023-03-23T08:20:22;24.42;;;16.52;;
45206;SDS011;30950;53.086;21.576;2023-03-23T08:22:59;22.10;;;15.15;;
45206;SDS011;30950;53.086;21.576;2023-03-23T08:25:27;18.02;;;13.52;;
45206;SDS011;30950;53.086;21.576;2023-03-23T08:28:23;18.75;;;12.82;;
45206;SDS011;30950;53.086;21.576;2023-03-23T08:31:08;23.77;;;16.48;;
45206;SDS011;30950;53.086;21.576;2023-03-23T08:33:59;20.33;;;13.23;;
45206;SDS011;30950;53.086;21.576;2023-03-23T08:36:44;18.73;;;13.23;;
45206;SDS011;30950;53.086;21.576;2023-03-23T08:39:30;16.92;;;13.35;;
45206;SDS011;30950;53.086;21.576;2023-03-23T08:41:59;18.67;;;12.23;;
45206;SDS011;30950;53.086;21.576;2023-03-23T08:44:46;17.45;;;11.88;;
45206;SDS011;30950;53.086;21.576;2023-03-23T08:47:27;15.95;;;11.95;;
45206;SDS011;30950;53.086;21.576;2023-03-23T08:50:13;17.77;;;11.82;;
45206;SDS011;30950;53.086;21.576;2023-03-23T08:53:13;15.25;;;12.13;;
45206;SDS011;30950;53.086;21.576;2023-03-23T08:56:06;16.23;;;11.20;;
45206;SDS011;30950;53.086;21.576;2023-03-23T08:59:02;20.17;;;12.35;;
45206;SDS011;30950;53.086;21.576;2023-03-23T09:01:52;17.10;;;11.98;;
45206;SDS011;30950;53.086;21.576;2023-03-23T09:04:22;16.50;;;10.85;;
45206;SDS011;30950;53.086;21.576;2023-03-23T09:07:19;15.88;;;11.95;;
45206;SDS011;30950;53.086;21.576;2023-03-23T09:09:45;20.40;;;11.75;;
45206;SDS011;30950;53.086;21.576;2023-03-23T09:12:12;17.55;;;11.57;;
45206;SDS011;30950;53.086;21.576;2023-03-23T09:14:39;15.52;;;10.38;;
45206;SDS011;30950;53.086;21.576;2023-03-23T09:17:06;12.43;;;9.60;;
45206;SDS011;30950;53.086;21.576;2023-03-23T09:21:59;13.57;;;9.73;;
45206;SDS011;30950;53.086;21.576;2023-03-23T09:24:25;12.70;;;8.52;;
45206;SDS011;30950;53.086;21.576;2023-03-23T09:26:52;12.75;;;8.40;;
45206;SDS011;30950;53.086;21.576;2023-03-23T09:29:19;11.35;;;8.07;;
45206;SDS011;30950;53.086;21.576;2023-03-23T09:31:46;10.98;;;8.00;;
45206;SDS011;30950;53.086;21.576;2023-03-23T09:34:13;11.63;;;6.97;;
45206;SDS011;30950;53.086;21.576;2023-03-23T09:36:41;9.80;;;6.10;;
45206;SDS011;30950;53.086;21.576;2023-03-23T09:39:12;15.10;;;6.25;;
45206;SDS011;30950;53.086;21.576;2023-03-23T09:41:54;10.07;;;6.07;;
45206;SDS011;30950;53.086;21.576;2023-03-23T09:49:54;7.55;;;5.43;;
45206;SDS011;30950;53.086;21.576;2023-03-23T09:52:23;10.48;;;5.60;;
45206;SDS011;30950;53.086;21.576;2023-03-23T09:55:17;8.98;;;5.57;;
45206;SDS011;30950;53.086;21.576;2023-03-23T09:57:48;8.82;;;5.32;;
45206;SDS011;30950;53.086;21.576;2023-03-23T10:05:32;10.85;;;5.10;;
45206;SDS011;30950;53.086;21.576;2023-03-23T10:08:12;9.10;;;7.32;;
45206;SDS011;30950;53.086;21.576;2023-03-23T10:15:58;9.05;;;5.82;;
45206;SDS011;30950;53.086;21.576;2023-03-23T10:18:41;9.20;;;4.88;;
45206;SDS011;30950;53.086;21.576;2023-03-23T10:21:16;7.78;;;5.65;;
45206;SDS011;30950;53.086;21.576;2023-03-23T10:23:56;7.20;;;5.05;;
45206;SDS011;30950;53.086;21.576;2023-03-23T10:28:59;6.55;;;4.90;;
45206;SDS011;30950;53.086;21.576;2023-03-23T10:31:38;8.48;;;4.68;;
45206;SDS011;30950;53.086;21.576;2023-03-23T10:37:17;7.95;;;4.53;;
45206;SDS011;30950;53.086;21.576;2023-03-23T10:42:32;11.15;;;4.78;;
45206;SDS011;30950;53.086;21.576;2023-03-23T10:50:36;9.45;;;3.83;;
45206;SDS011;30950;53.086;21.576;2023-03-23T10:53:07;5.32;;;3.70;;
45206;SDS011;30950;53.086;21.576;2023-03-23T10:55:53;7.25;;;3.92;;
45206;SDS011;30950;53.086;21.576;2023-03-23T10:58:25;7.50;;;3.97;;
45206;SDS011;30950;53.086;21.576;2023-03-23T11:01:00;5.80;;;4.00;;
45206;SDS011;30950;53.086;21.576;2023-03-23T11:05:59;7.65;;;3.60;;
45206;SDS011;30950;53.086;21.576;2023-03-23T11:08:35;5.38;;;3.33;;
45206;SDS011;30950;53.086;21.576;2023-03-23T11:11:17;7.93;;;4.15;;
45206;SDS011;30950;53.086;21.576;2023-03-23T11:14:00;8.18;;;4.15;;
45206;SDS011;30950;53.086;21.576;2023-03-23T11:16:30;7.15;;;4.35;;
45206;SDS011;30950;53.086;21.576;2023-03-23T11:18:58;6.85;;;4.00;;
45206;SDS011;30950;53.086;21.576;2023-03-23T11:21:27;5.53;;;3.55;;
45206;SDS011;30950;53.086;21.576;2023-03-23T11:23:55;6.30;;;3.78;;
45206;SDS011;30950;53.086;21.576;2023-03-23T11:26:25;7.05;;;4.00;;
45206;SDS011;30950;53.086;21.576;2023-03-23T11:29:12;7.55;;;3.50;;
45206;SDS011;30950;53.086;21.576;2023-03-23T11:31:48;6.07;;;3.63;;
45206;SDS011;30950;53.086;21.576;2023-03-23T11:34:21;5.85;;;3.70;;
45206;SDS011;30950;53.086;21.576;2023-03-23T11:36:55;8.18;;;4.13;;
45206;SDS011;30950;53.086;21.576;2023-03-23T11:39:30;9.73;;;4.35;;
45206;SDS011;30950;53.086;21.576;2023-03-23T11:42:12;5.95;;;3.95;;
45206;SDS011;30950;53.086;21.576;2023-03-23T11:45:13;10.52;;;3.75;;
45206;SDS011;30950;53.086;21.576;2023-03-23T11:47:41;6.85;;;3.75;;
45206;SDS011;30950;53.086;21.576;2023-03-23T11:50:30;9.45;;;5.25;;
45206;SDS011;30950;53.086;21.576;2023-03-23T11:53:00;9.10;;;6.63;;
45206;SDS011;30950;53.086;21.576;2023-03-23T11:56:04;8.40;;;4.18;;
45206;SDS011;30950;53.086;21.576;2023-03-23T11:58:27;6.60;;;3.95;;
45206;SDS011;30950;53.086;21.576;2023-03-23T12:06:06;8.68;;;4.10;;
45206;SDS011;30950;53.086;21.576;2023-03-23T12:39:02;11.68;;;4.22;;
45206;SDS011;30950;53.086;21.576;2023-03-23T12:45:00;5.38;;;3.38;;
45206;SDS011;30950;53.086;21.576;2023-03-23T12:47:45;6.80;;;3.80;;
45206;SDS011;30950;53.086;21.576;2023-03-23T12:50:34;7.72;;;3.90;;
45206;SDS011;30950;53.086;21.576;2023-03-23T12:55:48;7.22;;;3.70;;
45206;SDS011;30950;53.086;21.576;2023-03-23T12:58:20;5.97;;;3.75;;
45206;SDS011;30950;53.086;21.576;2023-03-23T13:03:40;6.10;;;3.50;;
45206;SDS011;30950;53.086;21.576;2023-03-23T13:06:22;10.93;;;4.97;;
45206;SDS011;30950;53.086;21.576;2023-03-23T13:11:56;6.38;;;4.70;;
45206;SDS011;30950;53.086;21.576;2023-03-23T13:22:39;5.07;;;3.60;;
45206;SDS011;30950;53.086;21.576;2023-03-23T13:25:18;5.60;;;3.35;;
45206;SDS011;30950;53.086;21.576;2023-03-23T13:27:57;4.63;;;3.17;;
45206;SDS011;30950;53.086;21.576;2023-03-23T13:30:25;5.32;;;3.70;;
45206;SDS011;30950;53.086;21.576;2023-03-23T13:33:01;5.30;;;3.58;;
45206;SDS011;30950;53.086;21.576;2023-03-23T13:35:36;7.75;;;4.93;;
45206;SDS011;30950;53.086;21.576;2023-03-23T13:38:11;8.70;;;4.20;;
45206;SDS011;30950;53.086;21.576;2023-03-23T13:40:58;7.85;;;4.57;;
45206;SDS011;30950;53.086;21.576;2023-03-23T13:43:33;6.90;;;4.22;;
45206;SDS011;30950;53.086;21.576;2023-03-23T13:46:09;7.00;;;4.28;;
45206;SDS011;30950;53.086;21.576;2023-03-23T13:48:48;6.63;;;4.10;;
45206;SDS011;30950;53.086;21.576;2023-03-23T13:51:32;7.57;;;4.20;;
45206;SDS011;30950;53.086;21.576;2023-03-23T13:54:12;7.07;;;3.83;;
45206;SDS011;30950;53.086;21.576;2023-03-23T13:59:15;6.55;;;4.30;;
45206;SDS011;30950;53.086;21.576;2023-03-23T14:01:54;6.75;;;4.30;;
45206;SDS011;30950;53.086;21.576;2023-03-23T14:04:21;7.35;;;3.90;;
45206;SDS011;30950;53.086;21.576;2023-03-23T14:06:49;5.53;;;3.63;;
45206;SDS011;30950;53.086;21.576;2023-03-23T14:12:01;5.65;;;3.67;;
45206;SDS011;30950;53.086;21.576;2023-03-23T14:14:39;8.10;;;3.60;;
45206;SDS011;30950;53.086;21.576;2023-03-23T14:17:12;7.93;;;3.58;;
45206;SDS011;30950;53.086;21.576;2023-03-23T14:19:41;6.25;;;3.35;;
45206;SDS011;30950;53.086;21.576;2023-03-23T14:22:53;4.95;;;3.45;;
45206;SDS011;30950;53.086;21.576;2023-03-23T14:25:08;7.40;;;4.28;;
45206;SDS011;30950;53.086;21.576;2023-03-23T14:27:43;6.03;;;3.47;;
45206;SDS011;30950;53.086;21.576;2023-03-23T14:30:14;7.93;;;4.13;;
45206;SDS011;30950;53.086;21.576;2023-03-23T14:32:48;7.57;;;3.92;;
45206;SDS011;30950;53.086;21.576;2023-03-23T14:35:26;5.22;;;3.65;;
45206;SDS011;30950;53.086;21.576;2023-03-23T14:37:58;5.65;;;3.50;;
45206;SDS011;30950;53.086;21.576;2023-03-23T14:40:26;7.00;;;3.80;;
45206;SDS011;30950;53.086;21.576;2023-03-23T14:42:53;7.32;;;4.00;;
45206;SDS011;30950;53.086;21.576;2023-03-23T14:45:21;9.23;;;3.78;;
45206;SDS011;30950;53.086;21.576;2023-03-23T14:47:52;7.57;;;3.70;;
45206;SDS011;30950;53.086;21.576;2023-03-23T14:52:56;6.97;;;3.80;;
45206;SDS011;30950;53.086;21.576;2023-03-23T14:55:30;5.35;;;3.55;;
45206;SDS011;30950;53.086;21.576;2023-03-23T14:58:05;6.28;;;3.75;;
45206;SDS011;30950;53.086;21.576;2023-03-23T15:03:07;7.50;;;4.35;;
45206;SDS011;30950;53.086;21.576;2023-03-23T15:05:41;8.00;;;4.85;;
45206;SDS011;30950;53.086;21.576;2023-03-23T15:08:16;7.03;;;4.07;;
45206;SDS011;30950;53.086;21.576;2023-03-23T15:10:52;6.28;;;3.90;;
45206;SDS011;30950;53.086;21.576;2023-03-23T15:13:20;7.22;;;4.05;;
45206;SDS011;30950;53.086;21.576;2023-03-23T15:15:47;6.90;;;4.13;;
45206;SDS011;30950;53.086;21.576;2023-03-23T15:18:27;7.13;;;4.38;;
45206;SDS011;30950;53.086;21.576;2023-03-23T15:20:56;7.97;;;4.78;;
45206;SDS011;30950;53.086;21.576;2023-03-23T15:23:27;7.93;;;4.82;;
45206;SDS011;30950;53.086;21.576;2023-03-23T15:25:55;7.03;;;4.63;;
45206;SDS011;30950;53.086;21.576;2023-03-23T15:28:28;8.25;;;4.55;;
45206;SDS011;30950;53.086;21.576;2023-03-23T15:31:00;6.72;;;4.15;;
45206;SDS011;30950;53.086;21.576;2023-03-23T15:33:37;8.00;;;4.60;;
45206;SDS011;30950;53.086;21.576;2023-03-23T15:36:08;9.02;;;5.07;;
45206;SDS011;30950;53.086;21.576;2023-03-23T15:38:45;9.38;;;5.72;;
45206;SDS011;30950;53.086;21.576;2023-03-23T15:41:26;7.28;;;4.78;;
45206;SDS011;30950;53.086;21.576;2023-03-23T15:43:54;7.97;;;5.00;;
45206;SDS011;30950;53.086;21.576;2023-03-23T15:46:27;8.95;;;5.32;;
45206;SDS011;30950;53.086;21.576;2023-03-23T15:51:24;8.18;;;5.43;;
45206;SDS011;30950;53.086;21.576;2023-03-23T15:53:53;7.93;;;6.03;;
45206;SDS011;30950;53.086;21.576;2023-03-23T15:56:20;9.82;;;5.97;;
45206;SDS011;30950;53.086;21.576;2023-03-23T15:58:47;9.90;;;5.88;;
45206;SDS011;30950;53.086;21.576;2023-03-23T16:01:17;10.13;;;6.75;;
45206;SDS011;30950;53.086;21.576;2023-03-23T16:03:51;9.00;;;6.85;;
45206;SDS011;30950;53.086;21.576;2023-03-23T16:06:33;10.77;;;7.28;;
45206;SDS011;30950;53.086;21.576;2023-03-23T16:09:01;12.98;;;7.78;;
45206;SDS011;30950;53.086;21.576;2023-03-23T16:11:30;9.82;;;6.93;;
45206;SDS011;30950;53.086;21.576;2023-03-23T16:13:59;12.73;;;7.30;;
45206;SDS011;30950;53.086;21.576;2023-03-23T16:16:27;12.10;;;7.75;;
45206;SDS011;30950;53.086;21.576;2023-03-23T16:18:59;11.77;;;8.40;;
45206;SDS011;30950;53.086;21.576;2023-03-23T16:21:26;14.30;;;9.50;;
45206;SDS011;30950;53.086;21.576;2023-03-23T16:23:55;13.63;;;8.88;;
45206;SDS011;30950;53.086;21.576;2023-03-23T16:26:22;14.70;;;9.27;;
45206;SDS011;30950;53.086;21.576;2023-03-23T16:28:50;12.85;;;8.32;;
45206;SDS011;30950;53.086;21.576;2023-03-23T16:31:28;12.52;;;8.63;;
45206;SDS011;30950;53.086;21.576;2023-03-23T16:33:56;12.18;;;9.05;;
45206;SDS011;30950;53.086;21.576;2023-03-23T16:36:23;14.30;;;9.35;;
45206;SDS011;30950;53.086;21.576;2023-03-23T16:38:50;16.38;;;9.93;;
45206;SDS011;30950;53.086;21.576;2023-03-23T16:41:20;19.98;;;13.93;;
45206;SDS011;30950;53.086;21.576;2023-03-23T16:43:47;18.90;;;11.98;;
45206;SDS011;30950;53.086;21.576;2023-03-23T16:46:14;20.38;;;12.90;;
45206;SDS011;30950;53.086;21.576;2023-03-23T16:48:42;23.88;;;15.40;;
45206;SDS011;30950;53.086;21.576;2023-03-23T16:51:09;23.08;;;14.25;;
45206;SDS011;30950;53.086;21.576;2023-03-23T16:53:37;18.10;;;13.55;;
45206;SDS011;30950;53.086;21.576;2023-03-23T16:56:04;19.38;;;13.18;;
45206;SDS011;30950;53.086;21.576;2023-03-23T16:58:31;19.65;;;13.45;;
45206;SDS011;30950;53.086;21.576;2023-03-23T17:00:59;22.70;;;14.57;;
45206;SDS011;30950;53.086;21.576;2023-03-23T17:03:27;18.75;;;13.70;;
45206;SDS011;30950;53.086;21.576;2023-03-23T17:05:55;16.25;;;12.18;;